Coronado, Panama
Current Conditions -  °F | °C
As of 8:00 PM on Saturday 22 Nov 2014 (Local Time) from MPMG Reporting Station
Scattered Clouds Scattered Clouds  
Wind Chill: 79°   Ceiling: Unl
Heat Index: 82°   Visibility: 6mi
Dew Point: 75°   Wind: 5mph
Humidity: 89%   Direction: 310°NW
Pressure: 29.83"   Gusts: NA
Location:  8.6°N, 79.99°W
Report Text: MPMG 230100Z 31004KT 9999 FEW018 SCT090 26/24 Q1010 NOSIG
Loading
Personal Weather Stations






























Interactive Weather Map New forecast layout! Learn more

10-Day Weather Forecast

Advertisements
Track Severe Weather on mobile